createdAt,value
2023-01-01T00:00:36.297Z,100106.03
2023-01-01T00:02:42.571Z,100111.83
2023-01-01T00:04:49.123Z,100110.91
2023-01-01T00:06:54.347Z,100112.86
2023-01-01T00:08:59.750Z,100115.81
2023-01-01T00:11:05.253Z,100119.84
2023-01-01T00:13:11.033Z,100115.31
2023-01-01T00:15:16.244Z,100117.3
2023-01-01T00:17:21.492Z,100124.52
2023-01-01T00:19:26.707Z,100121.36
2023-01-01T00:21:31.846Z,100124.22
2023-01-01T00:23:37.513Z,100117.07
2023-01-01T00:25:43.181Z,100112.98
2023-01-01T00:27:51.737Z,100112.28
2023-01-01T00:29:58.075Z,100109.41
2023-01-01T00:32:05.640Z,100111.69
2023-01-01T00:34:21.823Z,100111.6
2023-01-01T00:36:28.011Z,100107.24
2023-01-01T00:38:36.829Z,100117.28
2023-01-01T00:40:43.291Z,100117.36
2023-01-01T00:42:49.899Z,100114.41
2023-01-01T00:44:55.784Z,100107.73
2023-01-01T00:47:02.841Z,100105.08
2023-01-01T00:49:08.644Z,100098.23
2023-01-01T00:51:14.817Z,100102.75
2023-01-01T00:53:21.617Z,100106.8
2023-01-01T00:55:27.703Z,100117.11
2023-01-01T00:57:33.572Z,100118.28
2023-01-01T00:59:39.167Z,100112.06
2023-01-01T01:01:48.061Z,100115.2
2023-01-01T01:03:56.315Z,100113.84
2023-01-01T01:06:03.154Z,100111.53
2023-01-01T01:08:12.038Z,100116.94
2023-01-01T01:10:17.760Z,100118.38
2023-01-01T01:12:24.171Z,100108.34
2023-01-01T01:14:29.471Z,100110.63
2023-01-01T01:16:34.828Z,100117.3
2023-01-01T01:18:40.807Z,100119.36
2023-01-01T01:20:47.350Z,100124.86
2023-01-01T01:22:52.654Z,100120.63
2023-01-01T01:24:58.281Z,100116.8
2023-01-01T01:27:04.403Z,100115.05
2023-01-01T01:29:12.996Z,100114.39
2023-01-01T01:33:56.221Z,100118.73
2023-01-01T01:36:01.523Z,100118.95
2023-01-01T01:38:07.030Z,100121.84
2023-01-01T01:40:33.967Z,100116.05
2023-01-01T01:42:59.902Z,100121.13
2023-01-01T01:45:05.272Z,100123.45
2023-01-01T01:47:10.672Z,100130.89
2023-01-01T01:49:15.951Z,100129.89
2023-01-01T01:51:30.564Z,100126.08
2023-01-01T01:53:36.006Z,100127.42
2023-01-01T01:55:41.615Z,100135.64
2023-01-01T01:57:47.521Z,100122.85
2023-01-01T01:59:52.778Z,100122.3
2023-01-01T02:02:05.392Z,100119.8
2023-01-01T02:04:14.024Z,100117.27
2023-01-01T02:06:19.307Z,100118.13
2023-01-01T02:08:24.922Z,100124.19
2023-01-01T02:10:30.035Z,100115.75
2023-01-01T02:12:36.371Z,100108.5
2023-01-01T02:14:41.864Z,100114.66
2023-01-01T02:16:48.155Z,100113.31
2023-01-01T02:18:53.601Z,100117.66
2023-01-01T02:20:58.760Z,100111.47
2023-01-01T02:23:06.029Z,100107.45
2023-01-01T02:25:11.412Z,100114.31
2023-01-01T02:27:16.400Z,100114.61
2023-01-01T02:29:21.547Z,100119.63
2023-01-01T02:31:28.198Z,100125.25
2023-01-01T02:33:33.580Z,100134.56
2023-01-01T02:35:40.092Z,100134.24
2023-01-01T02:37:45.642Z,100134.8
2023-01-01T02:39:51.110Z,100133.55
2023-01-01T02:41:56.262Z,100123.56
2023-01-01T02:46:02.670Z,100122.38
2023-01-01T02:48:07.953Z,100118.38
2023-01-01T02:50:13.286Z,100110.76
2023-01-01T02:52:18.544Z,100118.63
2023-01-01T02:54:24.007Z,100120.23
2023-01-01T02:56:29.641Z,100114.4
2023-01-01T02:58:34.991Z,100112.94
2023-01-01T03:00:40.151Z,100110.22
2023-01-01T03:02:52.171Z,100110.92
2023-01-01T03:04:58.015Z,100112.88
2023-01-01T03:07:03.573Z,100107.53
2023-01-01T03:09:09.019Z,100120.36
2023-01-01T03:11:14.313Z,100109.53
2023-01-01T03:13:19.628Z,100112.46
2023-01-01T03:15:26.239Z,100107.16
2023-01-01T03:17:31.580Z,100105.3
2023-01-01T03:19:36.758Z,100106.17
2023-01-01T03:21:41.977Z,100102.89
2023-01-01T03:23:51.267Z,100101.34
2023-01-01T03:25:58.707Z,100105.58
2023-01-01T03:28:03.923Z,100099.11
2023-01-01T03:30:10.172Z,100101.55
2023-01-01T03:32:15.415Z,100104.92
2023-01-01T03:34:24.093Z,100118.03
2023-01-01T03:36:29.240Z,100103.77
2023-01-01T03:38:34.572Z,100101.89
2023-01-01T03:40:40.050Z,100105.83
2023-01-01T03:42:45.248Z,100110.31
2023-01-01T03:44:50.693Z,100121.69
2023-01-01T03:46:56.284Z,100120.8
2023-01-01T03:49:05.653Z,100118.45
2023-01-01T03:51:11.247Z,100111.89
2023-01-01T03:53:17.914Z,100124.13
2023-01-01T03:55:23.480Z,100133.84
2023-01-01T03:57:28.673Z,100128.58
2023-01-01T03:59:34.257Z,100130.2
2023-01-01T04:01:39.971Z,100140.22
2023-01-01T04:03:45.496Z,100129.89
2023-01-01T04:05:50.973Z,100130.74
2023-01-01T04:07:56.210Z,100138.38
2023-01-01T04:10:01.392Z,100141.23
2023-01-01T04:12:06.646Z,100140.98
2023-01-01T04:14:11.941Z,100136.39
2023-01-01T04:16:18.831Z,100138.87
2023-01-01T04:18:24.477Z,100138.56
2023-01-01T04:20:29.857Z,100141.83
2023-01-01T04:22:35.100Z,100152.81
2023-01-01T04:24:40.133Z,100139.22
2023-01-01T04:26:45.216Z,100144.84
2023-01-01T04:28:50.378Z,100136.58
2023-01-01T04:32:56.777Z,100146.55
2023-01-01T04:35:03.260Z,100147.52
2023-01-01T04:37:14.555Z,100151.64
2023-01-01T04:39:19.892Z,100158.36
2023-01-01T04:41:25.094Z,100161.69
2023-01-01T04:43:32.285Z,100170.69
2023-01-01T04:45:39.732Z,100179.9
2023-01-01T04:47:45.234Z,100168.19
2023-01-01T04:49:50.637Z,100163.25
2023-01-01T04:51:55.915Z,100169.44
2023-01-01T04:54:01.309Z,100170.41
2023-01-01T04:56:06.747Z,100171.69
2023-01-01T04:58:12.325Z,100178.08
2023-01-01T05:00:17.571Z,100170.45
2023-01-01T05:02:23.229Z,100175.41
2023-01-01T05:04:29.429Z,100176.97
2023-01-01T05:06:34.724Z,100178.16
2023-01-01T05:08:40.164Z,100184.66
2023-01-01T05:10:45.275Z,100180.97
2023-01-01T05:12:50.773Z,100185.28
2023-01-01T05:14:55.937Z,100181.16
2023-01-01T05:17:01.091Z,100194.62
2023-01-01T05:19:06.393Z,100181.75
2023-01-01T05:21:12.052Z,100178.61
2023-01-01T05:23:17.298Z,100180.98
2023-01-01T05:25:22.568Z,100176.36
2023-01-01T05:27:27.999Z,100180.59
2023-01-01T05:29:33.272Z,100173.41
2023-01-01T05:31:39.505Z,100176.98
2023-01-01T05:33:44.732Z,100185.17
2023-01-01T05:35:49.968Z,100176.84
2023-01-01T05:37:55.005Z,100187.93
2023-01-01T05:40:00.335Z,100189.16
2023-01-01T05:42:05.776Z,100177.28
2023-01-01T05:44:10.966Z,100177.58
2023-01-01T05:46:16.456Z,100179.9
2023-01-01T05:48:21.825Z,100176
2023-01-01T05:50:27.139Z,100184.32
2023-01-01T05:52:32.318Z,100188.15
2023-01-01T05:54:37.431Z,100185.83
2023-01-01T05:56:42.714Z,100192.95
2023-01-01T05:58:47.737Z,100192.38
2023-01-01T06:00:53.597Z,100195.97
2023-01-01T06:02:58.968Z,100198.55
2023-01-01T06:05:04.262Z,100206.05
2023-01-01T06:07:09.660Z,100209.77
2023-01-01T06:09:14.862Z,100212.14
2023-01-01T06:11:20.494Z,100209.94
2023-01-01T06:13:25.869Z,100209
2023-01-01T06:15:31.151Z,100214.56
2023-01-01T06:17:37.465Z,100213.62
2023-01-01T06:19:42.988Z,100213.34
2023-01-01T06:21:48.253Z,100210.55
2023-01-01T06:23:53.691Z,100202.56
2023-01-01T06:25:59.118Z,100202.63
2023-01-01T06:28:04.241Z,100208.44
2023-01-01T06:30:09.627Z,100216.2
2023-01-01T06:32:15.293Z,100229.26
2023-01-01T06:34:21.078Z,100223.88
2023-01-01T06:36:26.393Z,100225.87
2023-01-01T06:38:31.767Z,100236.05
2023-01-01T06:40:36.994Z,100241.98
2023-01-01T06:42:42.375Z,100238.5
2023-01-01T06:44:47.712Z,100234.41
2023-01-01T06:46:52.929Z,100238.88
2023-01-01T06:48:58.310Z,100237.91
2023-01-01T06:53:55.035Z,100247.94
2023-01-01T06:56:00.234Z,100244.19
2023-01-01T06:58:05.571Z,100251.92
2023-01-01T07:00:11.119Z,100247.28
2023-01-01T07:02:17.145Z,100247.67
2023-01-01T07:04:23.341Z,100240.42
2023-01-01T07:06:28.632Z,100249.34
2023-01-01T07:08:34.096Z,100249.42
2023-01-01T07:10:39.890Z,100255.05
2023-01-01T07:12:45.540Z,100256.52
2023-01-01T07:14:50.777Z,100256.18
2023-01-01T07:16:56.247Z,100259.06
2023-01-01T07:19:04.513Z,100254.23
2023-01-01T07:21:09.597Z,100254.06
2023-01-01T07:23:14.901Z,100258.42
2023-01-01T07:25:20.213Z,100259.48
2023-01-01T07:27:25.722Z,100258.55
2023-01-01T07:29:31.053Z,100256.94
2023-01-01T07:31:36.504Z,100264.8
2023-01-01T07:33:42.559Z,100267.53
2023-01-01T07:35:48.225Z,100275.83
2023-01-01T07:37:53.861Z,100273.16
2023-01-01T07:39:59.367Z,100270.09
2023-01-01T07:42:11.887Z,100283.99
2023-01-01T07:44:17.371Z,100279.82
2023-01-01T07:46:22.928Z,100293.39
2023-01-01T07:48:28.504Z,100298.51
2023-01-01T07:50:43.269Z,100290.25
2023-01-01T07:52:48.656Z,100294.69
2023-01-01T07:54:57.656Z,100298.68
2023-01-01T07:57:03.248Z,100301.55
2023-01-01T07:59:08.555Z,100312.67
2023-01-01T08:01:20.943Z,100305.38
2023-01-01T08:03:26.681Z,100308.25
2023-01-01T08:05:32.161Z,100307.36
2023-01-01T08:07:37.526Z,100313.18
2023-01-01T08:09:42.765Z,100313.6
2023-01-01T08:11:48.416Z,100320.3
2023-01-01T08:13:53.817Z,100317.53
2023-01-01T08:15:59.609Z,100315.06
2023-01-01T08:18:05.291Z,100301.88
2023-01-01T08:20:10.746Z,100313.22
2023-01-01T08:22:16.006Z,100321.86
2023-01-01T08:24:21.237Z,100326.76
2023-01-01T08:26:26.657Z,100331.06
2023-01-01T08:28:32.180Z,100330.45
2023-01-01T08:30:40.419Z,100319.92
2023-01-01T08:32:48.766Z,100321.89
2023-01-01T08:34:54.187Z,100326.05
2023-01-01T08:36:59.523Z,100321.31
2023-01-01T08:39:07.852Z,100320.57
2023-01-01T08:41:16.770Z,100332.13
2023-01-01T08:43:22.572Z,100336.41
2023-01-01T08:45:28.995Z,100345.67
2023-01-01T08:47:34.900Z,100345.72
2023-01-01T08:49:40.284Z,100349.22
2023-01-01T08:51:45.674Z,100351.7
2023-01-01T08:53:52.905Z,100354
2023-01-01T08:55:58.344Z,100357.57
2023-01-01T08:58:03.576Z,100359.45
2023-01-01T09:00:08.707Z,100361.75
2023-01-01T09:02:14.736Z,100365.94
2023-01-01T09:04:21.000Z,100363.01
2023-01-01T09:06:26.165Z,100362.03
2023-01-01T09:08:31.431Z,100371.22
2023-01-01T09:10:36.880Z,100364.13
2023-01-01T09:12:42.069Z,100366.27
2023-01-01T09:14:47.385Z,100372.16
2023-01-01T09:16:58.654Z,100369.05
2023-01-01T09:19:13.606Z,100370.59
2023-01-01T09:21:19.089Z,100373.02
2023-01-01T09:23:24.333Z,100369.39
2023-01-01T09:25:29.707Z,100363.8
2023-01-01T09:27:34.991Z,100368.52
2023-01-01T09:29:40.553Z,100363.02
2023-01-01T09:31:46.409Z,100364.38
2023-01-01T09:33:52.998Z,100365.54
2023-01-01T09:35:58.802Z,100364.27
2023-01-01T09:38:03.990Z,100370.38
2023-01-01T09:40:09.602Z,100369.45
2023-01-01T09:42:14.883Z,100369.88
2023-01-01T09:44:20.194Z,100372
2023-01-01T09:46:33.212Z,100376.91
2023-01-01T09:48:38.624Z,100369.44
2023-01-01T09:50:43.865Z,100373.35
2023-01-01T09:52:49.301Z,100375.16
2023-01-01T09:54:54.305Z,100372.78
2023-01-01T09:56:59.989Z,100377.48
2023-01-01T09:59:07.994Z,100369.25
2023-01-01T10:01:18.409Z,100373.42
2023-01-01T10:03:38.728Z,100371.61
2023-01-01T10:05:44.527Z,100368.82
2023-01-01T10:07:49.917Z,100371.66
2023-01-01T10:09:55.258Z,100371.09
2023-01-01T10:12:01.081Z,100369.59
2023-01-01T10:14:06.782Z,100366.34
2023-01-01T10:16:12.095Z,100373.98
2023-01-01T10:18:26.764Z,100372.97
2023-01-01T10:20:32.147Z,100373.67
2023-01-01T10:22:37.264Z,100368.91
2023-01-01T10:24:42.563Z,100362.12
2023-01-01T10:26:48.406Z,100359.63
2023-01-01T10:28:53.981Z,100363.86
2023-01-01T10:30:59.199Z,100357.77
2023-01-01T10:33:05.591Z,100353.33
2023-01-01T10:35:11.326Z,100348.53
2023-01-01T10:37:16.627Z,100348.2
2023-01-01T10:39:22.047Z,100345.84
2023-01-01T10:41:28.790Z,100353.7
2023-01-01T10:43:34.887Z,100349.41
2023-01-01T10:45:40.461Z,100342.58
2023-01-01T10:47:46.169Z,100346.38
2023-01-01T10:49:51.873Z,100346.95
2023-01-01T10:51:57.405Z,100355.48
2023-01-01T10:54:06.478Z,100342.38
2023-01-01T10:56:11.987Z,100342.03
2023-01-01T10:58:17.325Z,100342.63
2023-01-01T11:00:22.837Z,100341.25
2023-01-01T11:02:28.854Z,100340.42
2023-01-01T11:04:34.818Z,100329.42
2023-01-01T11:06:40.368Z,100333.27
2023-01-01T11:08:46.171Z,100331.27
2023-01-01T11:10:51.821Z,100331.66
2023-01-01T11:13:07.222Z,100332.77
2023-01-01T11:15:13.073Z,100335.12
2023-01-01T11:17:18.708Z,100332.47
2023-01-01T11:19:24.106Z,100330.56
2023-01-01T11:21:29.518Z,100342.09
2023-01-01T11:23:35.584Z,100333.27
2023-01-01T11:25:41.016Z,100341.19
2023-01-01T11:27:46.373Z,100334.94
2023-01-01T11:29:51.916Z,100329.27
2023-01-01T11:31:57.046Z,100333.73
2023-01-01T11:34:02.371Z,100325.59
2023-01-01T11:36:07.682Z,100323.38
2023-01-01T11:38:12.950Z,100326.16
2023-01-01T11:40:18.586Z,100326.34
2023-01-01T11:42:24.108Z,100316.33
2023-01-01T11:44:29.447Z,100319.55
2023-01-01T11:46:35.120Z,100318.06
2023-01-01T11:48:40.563Z,100327.27
2023-01-01T11:50:54.119Z,100324.52
2023-01-01T11:52:59.911Z,100314.8
2023-01-01T11:55:05.724Z,100322.7
2023-01-01T11:57:11.163Z,100324.02
2023-01-01T11:59:16.678Z,100328.82
2023-01-01T12:01:22.110Z,100322.35
2023-01-01T12:03:34.647Z,100323.38
2023-01-01T12:05:40.557Z,100319.94
2023-01-01T12:07:46.177Z,100317.69
2023-01-01T12:09:54.271Z,100309.33
2023-01-01T12:12:00.215Z,100301.11
2023-01-01T12:14:05.912Z,100303.72
2023-01-01T12:16:11.716Z,100305.08
2023-01-01T12:18:17.952Z,100315.4
2023-01-01T12:20:26.606Z,100314.98
2023-01-01T12:22:32.677Z,100311.36
2023-01-01T12:24:39.100Z,100308.52
2023-01-01T12:26:45.426Z,100314.17
2023-01-01T12:28:51.659Z,100307.91
2023-01-01T12:30:58.197Z,100303.94
2023-01-01T12:33:09.589Z,100307.59
2023-01-01T12:35:16.440Z,100310.98
2023-01-01T12:37:22.797Z,100307.54
2023-01-01T12:39:29.219Z,100298.46
2023-01-01T12:41:34.976Z,100300.67
2023-01-01T12:43:40.813Z,100297.08
2023-01-01T12:45:46.326Z,100305.69
2023-01-01T12:47:52.827Z,100312.22
2023-01-01T12:49:59.355Z,100310.03
2023-01-01T12:52:05.502Z,100313.13
2023-01-01T12:54:11.732Z,100319.98
2023-01-01T12:56:24.194Z,100320.67
2023-01-01T12:58:30.254Z,100336.54
2023-01-01T13:00:35.381Z,100343.57
2023-01-01T13:02:41.231Z,100353.66
2023-01-01T13:04:47.304Z,100352.78
2023-01-01T13:06:53.184Z,100359.69
2023-01-01T13:08:58.626Z,100359.31
2023-01-01T13:11:04.952Z,100358.62
2023-01-01T13:13:11.239Z,100362.36
2023-01-01T13:15:17.997Z,100369.52
2023-01-01T13:17:23.610Z,100373.19
2023-01-01T13:19:28.948Z,100369.85
2023-01-01T13:21:34.525Z,100377.55
2023-01-01T13:23:40.484Z,100373.59
2023-01-01T13:25:45.982Z,100373.06
2023-01-01T13:27:52.435Z,100366.63
2023-01-01T13:30:02.019Z,100365.43
2023-01-01T13:32:08.073Z,100360.84
2023-01-01T13:34:14.995Z,100363.09
2023-01-01T13:36:22.052Z,100366.03
2023-01-01T13:38:28.668Z,100364.64
2023-01-01T13:40:35.483Z,100367.94
2023-01-01T13:42:41.693Z,100365.66
2023-01-01T13:44:47.268Z,100356.57
2023-01-01T13:46:53.381Z,100356.02
2023-01-01T13:49:03.589Z,100368.91
2023-01-01T13:51:09.719Z,100370.63
2023-01-01T13:53:15.345Z,100363.94
2023-01-01T13:55:21.069Z,100368.28
2023-01-01T13:57:26.586Z,100371.07
2023-01-01T13:59:32.458Z,100369.24
2023-01-01T14:01:38.841Z,100381.5
2023-01-01T14:03:45.302Z,100382.51
2023-01-01T14:05:51.459Z,100378.77
2023-01-01T14:07:57.942Z,100387.28
2023-01-01T14:10:04.230Z,100387.34
2023-01-01T14:12:10.492Z,100389.38
2023-01-01T14:14:16.318Z,100392.27
2023-01-01T14:16:22.072Z,100394.64
2023-01-01T14:18:27.853Z,100395.44
2023-01-01T14:20:37.229Z,100393.8
2023-01-01T14:22:42.919Z,100406.84
2023-01-01T14:24:48.679Z,100419.27
2023-01-01T14:26:54.755Z,100429.33
2023-01-01T14:29:01.008Z,100428.72
2023-01-01T14:31:12.109Z,100436.33
2023-01-01T14:33:18.423Z,100436.08
2023-01-01T14:35:24.645Z,100437.02
2023-01-01T14:37:30.600Z,100449.52
2023-01-01T14:39:36.387Z,100455.03
2023-01-01T14:41:42.836Z,100453.47
2023-01-01T14:43:49.719Z,100467.42
2023-01-01T14:45:56.316Z,100464.97
2023-01-01T14:48:02.090Z,100463.59
2023-01-01T14:50:07.589Z,100464.16
2023-01-01T14:52:13.223Z,100470.77
2023-01-01T14:54:18.393Z,100464.63
2023-01-01T14:56:23.987Z,100461.67
2023-01-01T14:58:29.431Z,100468.8
2023-01-01T15:00:35.682Z,100469.84
2023-01-01T15:02:43.422Z,100473.02
2023-01-01T15:04:49.535Z,100477.88
2023-01-01T15:06:55.333Z,100485.98
2023-01-01T15:09:01.572Z,100494.48
2023-01-01T15:11:07.321Z,100491.92
2023-01-01T15:13:12.920Z,100498.13
2023-01-01T15:15:18.333Z,100500.98
2023-01-01T15:17:27.154Z,100492.38
2023-01-01T15:19:32.596Z,100486.54
2023-01-01T15:21:38.044Z,100468.7
2023-01-01T15:23:44.017Z,100453.09
2023-01-01T15:25:49.745Z,100444.89
2023-01-01T15:27:55.098Z,100447.83
2023-01-01T15:30:00.969Z,100446.8
2023-01-01T15:32:16.981Z,100440.79
2023-01-01T15:34:22.996Z,100442
2023-01-01T15:36:32.547Z,100448.69
2023-01-01T15:38:38.686Z,100450.64
2023-01-01T15:40:53.455Z,100454.21
2023-01-01T15:42:59.190Z,100458.92
2023-01-01T15:45:04.502Z,100455.09
2023-01-01T15:47:11.623Z,100453.38
2023-01-01T15:49:18.217Z,100450.57
2023-01-01T15:51:26.291Z,100461.02
2023-01-01T15:53:33.691Z,100462.48
2023-01-01T15:55:39.960Z,100464.27
2023-01-01T15:57:45.846Z,100470.53
2023-01-01T15:59:52.455Z,100469.94
2023-01-01T16:01:58.571Z,100480.81
2023-01-01T16:04:04.478Z,100482.34
2023-01-01T16:06:10.546Z,100484.52
2023-01-01T16:08:17.200Z,100489.86
2023-01-01T16:10:23.323Z,100486.67
2023-01-01T16:12:29.053Z,100487.79
2023-01-01T16:14:36.149Z,100495.5
2023-01-01T16:16:42.583Z,100492.36
2023-01-01T16:18:49.571Z,100504.21
2023-01-01T16:20:56.552Z,100508.25
2023-01-01T16:23:04.462Z,100517.28
2023-01-01T16:25:11.220Z,100520.76
2023-01-01T16:27:17.347Z,100527.95
2023-01-01T16:29:23.767Z,100535.41
2023-01-01T16:31:29.984Z,100544.48
2023-01-01T16:33:36.157Z,100546.43
2023-01-01T16:35:42.162Z,100546.59
2023-01-01T16:37:49.054Z,100548.58
2023-01-01T16:39:55.871Z,100554.12
2023-01-01T16:42:02.199Z,100559.77
2023-01-01T16:44:08.888Z,100556.34
2023-01-01T16:46:15.312Z,100558.98
2023-01-01T16:48:23.695Z,100559.63
2023-01-01T16:50:31.595Z,100565.45
2023-01-01T16:52:45.895Z,100570.13
2023-01-01T16:54:51.617Z,100566.02
2023-01-01T16:56:57.263Z,100579.66
2023-01-01T16:59:06.818Z,100580.43
2023-01-01T17:01:13.702Z,100588.41
2023-01-01T17:03:20.938Z,100590.27
2023-01-01T17:05:27.361Z,100585.86
2023-01-01T17:07:33.208Z,100581.91
2023-01-01T17:09:39.326Z,100579.94
2023-01-01T17:11:45.970Z,100582.3
2023-01-01T17:13:51.976Z,100584.61
2023-01-01T17:15:58.822Z,100584.05
2023-01-01T17:18:05.880Z,100582.93
2023-01-01T17:20:12.408Z,100584.22
2023-01-01T17:22:18.025Z,100587.09
2023-01-01T17:24:24.076Z,100586.59
2023-01-01T17:26:30.818Z,100576.44
2023-01-01T17:28:36.568Z,100575.63
2023-01-01T17:30:42.041Z,100572.63
2023-01-01T17:32:48.067Z,100571.72
2023-01-01T17:34:54.523Z,100574.23
2023-01-01T17:37:01.030Z,100573.67
2023-01-01T17:39:07.786Z,100571.09
2023-01-01T17:41:14.279Z,100567.36
2023-01-01T17:43:21.242Z,100578.8
2023-01-01T17:45:27.640Z,100582.51
2023-01-01T17:47:34.744Z,100582.98
2023-01-01T17:49:42.346Z,100589.41
2023-01-01T17:51:49.115Z,100597.09
2023-01-01T17:53:55.485Z,100592.7
2023-01-01T17:56:03.938Z,100599.97
2023-01-01T17:58:10.827Z,100596.77
2023-01-01T18:00:18.040Z,100590.55
2023-01-01T18:02:25.279Z,100593.8
2023-01-01T18:04:33.729Z,100597.95
2023-01-01T18:06:48.122Z,100595.72
2023-01-01T18:09:04.915Z,100594.88
2023-01-01T18:11:11.956Z,100596.09
2023-01-01T18:13:19.020Z,100599
2023-01-01T18:15:26.221Z,100602.64
2023-01-01T18:17:33.688Z,100601.49
2023-01-01T18:19:40.431Z,100610.38
2023-01-01T18:21:46.979Z,100601.12
2023-01-01T18:23:53.575Z,100601.09
2023-01-01T18:26:02.174Z,100610.84
2023-01-01T18:28:09.080Z,100608.13
2023-01-01T18:30:18.128Z,100611.28
2023-01-01T18:32:30.350Z,100613.15
2023-01-01T18:34:37.552Z,100620.37
2023-01-01T18:36:45.035Z,100622.25
2023-01-01T18:38:53.469Z,100632.58
2023-01-01T18:41:00.853Z,100631.81
2023-01-01T18:43:07.931Z,100636.75
2023-01-01T18:45:15.297Z,100641.91
2023-01-01T18:47:23.060Z,100641.13
2023-01-01T18:49:29.847Z,100643.75
2023-01-01T18:51:37.472Z,100646.68
2023-01-01T18:53:44.039Z,100640.05
2023-01-01T18:55:49.886Z,100645.5
2023-01-01T18:57:57.013Z,100645.34
2023-01-01T19:00:04.204Z,100646.46
2023-01-01T19:02:15.964Z,100647.09
2023-01-01T19:04:23.234Z,100647.34
2023-01-01T19:06:30.282Z,100648.58
2023-01-01T19:08:38.653Z,100654.45
2023-01-01T19:10:47.542Z,100660.75
2023-01-01T19:12:54.552Z,100664.53
2023-01-01T19:15:04.042Z,100664.61
2023-01-01T19:17:10.190Z,100672.59
2023-01-01T19:19:20.025Z,100676.27
2023-01-01T19:21:27.282Z,100676.88
2023-01-01T19:23:34.890Z,100685.73
2023-01-01T19:25:43.108Z,100679.31
2023-01-01T19:27:55.409Z,100680.48
2023-01-01T19:30:13.600Z,100682.17
2023-01-01T19:32:20.439Z,100688.26
2023-01-01T19:34:26.374Z,100693.86
2023-01-01T19:36:37.031Z,100698.55
2023-01-01T19:38:46.909Z,100706.8
2023-01-01T19:40:56.649Z,100708.63
2023-01-01T19:43:03.897Z,100709.93
2023-01-01T19:45:12.507Z,100716.5
2023-01-01T19:47:22.877Z,100714.89
2023-01-01T19:49:35.071Z,100709.18
2023-01-01T19:51:44.709Z,100715.92
2023-01-01T19:53:51.910Z,100722.18
2023-01-01T19:56:01.934Z,100719.69
2023-01-01T19:58:16.327Z,100721.72
2023-01-01T20:00:25.371Z,100725.83
2023-01-01T20:02:49.632Z,100728.45
2023-01-01T20:05:03.873Z,100728.98
2023-01-01T20:07:12.023Z,100735.13
2023-01-01T20:09:22.718Z,100733.64
2023-01-01T20:11:42.173Z,100732.82
2023-01-01T20:14:01.344Z,100737.73
2023-01-01T20:16:11.828Z,100736.56
2023-01-01T20:18:19.729Z,100743.55
2023-01-01T20:20:28.458Z,100742.97
2023-01-01T20:22:38.088Z,100743.8
2023-01-01T20:24:46.621Z,100743.53
2023-01-01T20:26:55.462Z,100743.38
2023-01-01T20:29:04.290Z,100744.38
2023-01-01T20:31:16.471Z,100738.98
2023-01-01T20:33:27.524Z,100743.72
2023-01-01T20:35:36.672Z,100744.98
2023-01-01T20:37:44.871Z,100754.58
2023-01-01T20:39:52.732Z,100752.42
2023-01-01T20:42:02.609Z,100747.69
2023-01-01T20:44:14.279Z,100745.86
2023-01-01T20:46:29.488Z,100750.84
2023-01-01T20:48:40.093Z,100748.28
2023-01-01T20:50:48.472Z,100751.66
2023-01-01T20:53:00.610Z,100753.73
2023-01-01T20:55:12.106Z,100752.73
2023-01-01T20:57:21.340Z,100757.13
2023-01-01T20:59:39.261Z,100757.28
2023-01-01T21:01:47.741Z,100755.05
2023-01-01T21:03:56.442Z,100756.03
2023-01-01T21:06:05.052Z,100754.3
2023-01-01T21:08:15.375Z,100754.95
2023-01-01T21:10:22.419Z,100753.2
2023-01-01T21:12:29.123Z,100754.8
2023-01-01T21:14:37.128Z,100757.11
2023-01-01T21:16:46.170Z,100762.91
2023-01-01T21:18:54.029Z,100771
2023-01-01T21:21:05.221Z,100774.33
2023-01-01T21:23:14.245Z,100775.02
2023-01-01T21:25:52.371Z,100776.31
2023-01-01T21:27:58.588Z,100774.72
2023-01-01T21:30:04.119Z,100777.4
2023-01-01T21:32:13.376Z,100782.29
2023-01-01T21:34:21.236Z,100788.88
2023-01-01T21:36:27.529Z,100785.72
2023-01-01T21:38:34.399Z,100791.75
2023-01-01T21:40:40.894Z,100789.72
2023-01-01T21:42:46.699Z,100792.73
2023-01-01T21:44:52.609Z,100788.94
2023-01-01T21:47:03.051Z,100788.09
2023-01-01T21:49:08.787Z,100789.14
2023-01-01T21:51:14.542Z,100796.2
2023-01-01T21:53:20.675Z,100796.28
2023-01-01T21:55:26.024Z,100797.11
2023-01-01T21:57:31.675Z,100798.94
2023-01-01T21:59:37.206Z,100805.48
2023-01-01T22:01:43.014Z,100805.49
2023-01-01T22:03:48.867Z,100806.25
2023-01-01T22:06:01.239Z,100796.91
2023-01-01T22:08:06.637Z,100798.63
2023-01-01T22:10:13.381Z,100800.91
2023-01-01T22:12:18.854Z,100802.42
2023-01-01T22:14:24.536Z,100801.38
2023-01-01T22:16:30.142Z,100805.77
2023-01-01T22:18:35.736Z,100807.35
2023-01-01T22:20:41.128Z,100805.77
2023-01-01T22:22:46.276Z,100800.82
2023-01-01T22:24:51.667Z,100796.88
2023-01-01T22:26:56.925Z,100797.78
2023-01-01T22:29:02.615Z,100797.53
2023-01-01T22:31:08.231Z,100801.95
2023-01-01T22:33:14.379Z,100799.7
2023-01-01T22:35:19.798Z,100796.1
2023-01-01T22:37:25.024Z,100788.16
2023-01-01T22:39:30.190Z,100793.13
2023-01-01T22:41:35.512Z,100797
2023-01-01T22:43:41.350Z,100800.11
2023-01-01T22:45:46.641Z,100793.7
2023-01-01T22:47:52.723Z,100794.34
2023-01-01T22:49:58.121Z,100791.61
2023-01-01T22:52:03.735Z,100792.07
2023-01-01T22:54:09.182Z,100789.88
2023-01-01T22:56:14.867Z,100790.09
2023-01-01T22:58:20.269Z,100792.61
2023-01-01T23:00:26.231Z,100794.5
2023-01-01T23:02:31.781Z,100792.45
2023-01-01T23:04:37.113Z,100789.92
2023-01-01T23:06:42.725Z,100792.89
2023-01-01T23:08:48.247Z,100789.45
2023-01-01T23:10:53.504Z,100790.16
2023-01-01T23:12:58.879Z,100789.57
2023-01-01T23:15:04.312Z,100790.02
2023-01-01T23:17:09.492Z,100793.92
2023-01-01T23:19:14.672Z,100791.06
2023-01-01T23:21:27.563Z,100786.59
2023-01-01T23:23:32.904Z,100787.55
2023-01-01T23:25:38.163Z,100790.29
2023-01-01T23:27:43.201Z,100789.34
2023-01-01T23:29:48.592Z,100787.25
2023-01-01T23:31:53.910Z,100788.32
2023-01-01T23:33:59.080Z,100786.23
2023-01-01T23:36:04.101Z,100792.8
2023-01-01T23:38:09.392Z,100795.14
2023-01-01T23:40:14.524Z,100793.88
2023-01-01T23:42:19.625Z,100788.87
2023-01-01T23:44:24.789Z,100789.09
2023-01-01T23:46:30.404Z,100790.75
2023-01-01T23:48:35.662Z,100793.81
2023-01-01T23:50:41.054Z,100792.16
2023-01-01T23:52:46.289Z,100788.39
2023-01-01T23:54:51.418Z,100792.22
2023-01-01T23:56:56.587Z,100792.52
2023-01-01T23:59:01.851Z,100797.22
